Ana Sayfa
METAR-TAF:

METAR-TAF

Havaalanları :

Dinwiddie County Airport

Petersburg, Virginia, Amerika Birleşik Devletleri

Enlem: 37-11N, Boylam: 077-31W, yükseklik: 59 m

Güncel hava durumu gözlemi

Rapor saat 11:35 UTC de 27 dakika önce yapıldı.
Sakin rüzgar
Sıcaklık 9°C
Nem 87%
Basınç 1025 hPa
Görüş mesafesi: 16.1 km
Açık gökyüzü

METAR: KPTB 161135Z AUTO 00000KT 10SM CLR 09/07 A3028 RMK AO2 T00920066

Saat: 08:02 (12:02 UTC)


TAF: eksik

4.000'den fazla havaalanı için hava durumu gözlemleri ve tahminleri (METAR ve TAF raporları).

Kullanılabilir istasyonlar harita üzerinde sarı ve kırmızı noktalarla gösterilir.

İstasyonun adını görmek için fareyi noktanın üzerinde gezdirin.

Sonrasında hava gözlem ve tahminlerini görmek için tıklayın.

Haritayı değiştirmek için: yaklaştırmak için siyah artı işaretli yeşil düğmeye ve uzaklaştırmak için de eksi işaretli düğmeye hızla tıklayın; bitişik haritalar için yeşil okları kullanın.


METAR-TAF: